createdAt,value
2018-09-27T00:00:55.045Z,11.63
2018-09-27T00:03:59.363Z,12.00
2018-09-27T00:07:03.652Z,10.90
2018-09-27T00:10:07.925Z,10.97
2018-09-27T00:13:12.230Z,18.27
2018-09-27T00:16:16.522Z,14.77
2018-09-27T00:19:20.797Z,12.63
2018-09-27T00:22:25.101Z,12.50
2018-09-27T00:25:29.414Z,9.40
2018-09-27T00:28:33.677Z,11.87
2018-09-27T00:31:38.628Z,10.20
2018-09-27T00:34:42.886Z,10.10
2018-09-27T00:37:47.174Z,10.17
2018-09-27T00:40:51.407Z,10.43
2018-09-27T00:43:56.229Z,10.10
2018-09-27T00:47:00.494Z,10.70
2018-09-27T00:50:04.918Z,10.20
2018-09-27T00:53:09.357Z,11.10
2018-09-27T00:56:13.630Z,10.33
2018-09-27T00:59:17.866Z,9.50
2018-09-27T01:02:22.135Z,11.40
2018-09-27T01:05:26.400Z,11.17
2018-09-27T01:08:30.631Z,11.07
2018-09-27T01:11:34.880Z,11.20
2018-09-27T01:14:39.126Z,12.70
2018-09-27T01:17:43.419Z,10.43
2018-09-27T01:20:47.737Z,11.10
2018-09-27T01:23:52.009Z,11.37
2018-09-27T01:26:56.334Z,9.13
2018-09-27T01:30:00.592Z,9.43
2018-09-27T01:33:04.858Z,10.13
2018-09-27T01:36:09.108Z,11.77
2018-09-27T01:39:13.390Z,10.50
2018-09-27T01:42:17.666Z,9.80
2018-09-27T01:45:21.929Z,10.40
2018-09-27T01:48:26.218Z,8.97
2018-09-27T01:51:30.488Z,9.53
2018-09-27T01:54:34.803Z,9.50
2018-09-27T01:57:39.079Z,8.67
2018-09-27T02:00:43.361Z,11.90
2018-09-27T02:03:47.622Z,11.33
2018-09-27T02:06:51.897Z,9.90
2018-09-27T02:09:56.162Z,8.83
2018-09-27T02:13:00.438Z,10.50
2018-09-27T02:16:04.688Z,8.90
2018-09-27T02:19:08.953Z,9.27
2018-09-27T02:22:13.246Z,9.60
2018-09-27T02:25:17.525Z,9.17
2018-09-27T02:28:21.801Z,8.40
2018-09-27T02:31:26.060Z,8.27
2018-09-27T02:34:31.026Z,8.07
2018-09-27T02:37:35.283Z,6.77
2018-09-27T02:40:39.569Z,8.03
2018-09-27T02:43:44.494Z,7.40
2018-09-27T02:46:48.773Z,8.03
2018-09-27T02:49:53.025Z,7.17
2018-09-27T02:52:57.337Z,6.93
2018-09-27T02:56:01.583Z,7.00
2018-09-27T02:59:07.063Z,7.57
2018-09-27T03:02:11.317Z,5.87
2018-09-27T03:05:15.600Z,6.93
2018-09-27T03:08:19.861Z,6.13
2018-09-27T03:11:24.155Z,6.70
2018-09-27T03:14:28.423Z,6.17
2018-09-27T03:17:32.691Z,6.07
2018-09-27T03:20:36.994Z,5.63
2018-09-27T03:23:41.255Z,5.80
2018-09-27T03:26:45.525Z,5.47
2018-09-27T03:29:49.769Z,6.47
2018-09-27T03:32:54.072Z,7.33
2018-09-27T03:35:58.677Z,7.43
2018-09-27T03:39:05.998Z,4.90
2018-09-27T03:42:10.321Z,5.57
2018-09-27T03:45:14.578Z,5.00
2018-09-27T03:48:18.837Z,5.00
2018-09-27T03:51:23.114Z,5.90
2018-09-27T03:54:27.413Z,6.00
2018-09-27T03:57:31.745Z,5.30
2018-09-27T04:00:36.018Z,5.43
2018-09-27T04:03:40.269Z,5.63
2018-09-27T04:06:45.576Z,5.83
2018-09-27T04:09:49.853Z,5.63
2018-09-27T04:12:54.143Z,5.93
2018-09-27T04:15:58.375Z,5.33
2018-09-27T04:19:02.831Z,5.30
2018-09-27T04:22:07.165Z,3.97
2018-09-27T04:25:11.435Z,5.07
2018-09-27T04:28:15.691Z,4.63
2018-09-27T04:31:19.971Z,3.90
2018-09-27T04:34:24.225Z,4.20
2018-09-27T04:37:28.873Z,3.77
2018-09-27T04:40:33.139Z,3.40
2018-09-27T04:43:37.425Z,4.57
2018-09-27T04:46:41.764Z,3.50
2018-09-27T04:49:46.010Z,4.40
2018-09-27T04:52:50.374Z,4.20
2018-09-27T04:55:54.732Z,4.27
2018-09-27T04:58:58.995Z,3.80
2018-09-27T05:02:03.251Z,3.80
2018-09-27T05:05:07.607Z,3.80
2018-09-27T05:08:11.876Z,4.30
2018-09-27T05:11:16.127Z,4.80
2018-09-27T05:14:20.397Z,4.13
2018-09-27T05:17:24.694Z,3.57
2018-09-27T05:20:28.972Z,4.20
2018-09-27T05:23:33.362Z,3.73
2018-09-27T05:26:37.648Z,3.80
2018-09-27T05:29:41.884Z,4.07
2018-09-27T05:32:46.134Z,3.47
2018-09-27T05:35:51.437Z,3.83
2018-09-27T05:38:55.737Z,2.73
2018-09-27T05:42:00.000Z,3.50
2018-09-27T05:45:04.274Z,4.60
2018-09-27T05:48:08.551Z,5.33
2018-09-27T05:51:12.807Z,4.17
2018-09-27T05:54:17.064Z,3.60
2018-09-27T05:57:21.349Z,3.70
2018-09-27T06:00:25.659Z,3.50
2018-09-27T06:03:29.955Z,4.03
2018-09-27T06:06:34.215Z,3.03
2018-09-27T06:09:38.532Z,3.60
2018-09-27T06:12:42.756Z,4.33
2018-09-27T06:15:47.005Z,3.67
2018-09-27T06:18:51.272Z,3.97
2018-09-27T06:21:55.523Z,3.90
2018-09-27T06:24:59.844Z,3.40
2018-09-27T06:28:04.082Z,3.80
2018-09-27T06:31:08.546Z,4.80
2018-09-27T06:34:12.836Z,4.43
2018-09-27T06:37:17.075Z,4.20
2018-09-27T06:40:21.346Z,4.97
2018-09-27T06:43:26.433Z,5.00
2018-09-27T06:46:30.719Z,5.17
2018-09-27T06:49:34.960Z,5.90
2018-09-27T06:52:39.259Z,6.70
2018-09-27T06:55:43.582Z,5.13
2018-09-27T06:58:47.796Z,6.53
2018-09-27T07:01:52.021Z,5.90
2018-09-27T07:04:56.295Z,7.03
2018-09-27T07:08:00.583Z,6.30
2018-09-27T07:11:04.822Z,6.57
2018-09-27T07:14:09.702Z,6.30
2018-09-27T07:17:13.974Z,6.43
2018-09-27T07:20:18.340Z,6.40
2018-09-27T07:23:22.573Z,5.93
2018-09-27T07:26:26.912Z,7.30
2018-09-27T07:29:31.097Z,8.10
2018-09-27T07:32:35.438Z,6.77
2018-09-27T07:35:39.624Z,7.27
2018-09-27T07:38:43.960Z,8.07
2018-09-27T07:41:48.149Z,7.20
2018-09-27T07:44:52.419Z,8.30
2018-09-27T07:47:56.663Z,7.33
2018-09-27T07:51:01.065Z,6.83
2018-09-27T07:54:05.345Z,7.13
2018-09-27T07:57:09.826Z,8.27
2018-09-27T08:00:14.082Z,6.47
2018-09-27T08:03:18.367Z,7.40
2018-09-27T08:06:22.664Z,9.87
2018-09-27T08:09:26.965Z,8.53
2018-09-27T08:12:31.255Z,9.60
2018-09-27T08:15:35.478Z,11.83
2018-09-27T08:18:39.771Z,12.13
2018-09-27T08:21:44.036Z,11.23
2018-09-27T08:24:48.416Z,10.67
2018-09-27T08:27:52.685Z,9.90
2018-09-27T08:30:57.238Z,11.63
2018-09-27T08:34:01.347Z,12.77
2018-09-27T08:37:05.802Z,10.10
2018-09-27T08:40:11.217Z,8.13
2018-09-27T08:43:15.483Z,9.80
2018-09-27T08:46:19.758Z,12.77
2018-09-27T08:49:24.029Z,9.77
2018-09-27T08:52:28.294Z,8.97
2018-09-27T08:55:32.595Z,15.73
2018-09-27T08:58:36.857Z,11.30
2018-09-27T09:01:41.124Z,12.63
2018-09-27T09:04:45.377Z,9.30
2018-09-27T09:07:49.587Z,9.67
2018-09-27T09:10:53.847Z,8.97
2018-09-27T09:13:58.099Z,8.17
2018-09-27T09:17:02.366Z,8.80
2018-09-27T09:20:07.196Z,9.47
2018-09-27T09:23:11.469Z,9.80
2018-09-27T09:26:15.762Z,10.57
2018-09-27T09:29:20.121Z,10.33
2018-09-27T09:32:24.395Z,11.37
2018-09-27T09:35:28.689Z,11.67
2018-09-27T09:38:32.959Z,15.67
2018-09-27T09:41:38.025Z,13.67
2018-09-27T09:44:42.281Z,15.40
2018-09-27T09:47:46.529Z,14.37
2018-09-27T09:50:51.622Z,13.27
2018-09-27T09:53:55.916Z,14.60
2018-09-27T09:57:00.179Z,15.10
2018-09-27T10:00:04.533Z,16.30
2018-09-27T10:03:09.384Z,14.97
2018-09-27T10:06:13.621Z,16.53
2018-09-27T10:09:17.885Z,17.63
2018-09-27T10:12:22.166Z,17.40
2018-09-27T10:15:26.446Z,16.73
2018-09-27T10:18:30.696Z,16.47
2018-09-27T10:21:35.011Z,16.13
2018-09-27T10:24:39.257Z,14.73
2018-09-27T10:27:43.570Z,13.47
2018-09-27T10:30:47.829Z,14.30
2018-09-27T10:33:52.797Z,13.87
2018-09-27T10:36:57.049Z,12.63
2018-09-27T10:40:01.324Z,14.20
2018-09-27T10:43:05.577Z,14.70
2018-09-27T10:46:09.847Z,15.50
2018-09-27T10:49:14.109Z,15.00
2018-09-27T10:52:18.446Z,13.73
2018-09-27T10:55:22.702Z,13.27
2018-09-27T10:58:26.984Z,13.10
2018-09-27T11:01:31.223Z,13.57
2018-09-27T11:04:35.494Z,13.60
2018-09-27T11:07:39.759Z,14.73
2018-09-27T11:10:44.024Z,15.30
2018-09-27T11:13:48.292Z,16.93
2018-09-27T11:16:52.563Z,17.57
2018-09-27T11:19:56.844Z,22.00
2018-09-27T11:23:01.119Z,22.80
2018-09-27T11:26:05.410Z,26.20
2018-09-27T11:29:15.823Z,27.33
2018-09-27T11:32:26.269Z,30.77
2018-09-27T11:35:30.524Z,34.37
2018-09-27T11:38:34.812Z,34.83
2018-09-27T11:41:39.078Z,33.80
2018-09-27T11:44:44.421Z,32.77
2018-09-27T11:47:48.675Z,31.37
2018-09-27T11:50:52.915Z,33.77
2018-09-27T11:53:57.193Z,27.80
2018-09-27T11:57:01.462Z,25.60
2018-09-27T12:00:06.259Z,23.43
2018-09-27T12:03:10.513Z,21.17
2018-09-27T12:06:14.781Z,18.43
2018-09-27T12:09:19.037Z,18.13
2018-09-27T12:12:24.548Z,15.63
2018-09-27T12:15:28.793Z,13.93
2018-09-27T12:18:33.082Z,15.43
2018-09-27T12:21:37.334Z,12.73
2018-09-27T12:24:41.646Z,12.83
2018-09-27T12:27:47.725Z,15.17
2018-09-27T12:30:52.012Z,14.27
2018-09-27T12:33:56.286Z,16.03
2018-09-27T12:37:00.554Z,12.87
2018-09-27T12:40:04.819Z,13.50
2018-09-27T12:43:09.199Z,13.00
2018-09-27T12:46:13.463Z,15.37
2018-09-27T12:49:17.744Z,14.17
2018-09-27T12:52:22.229Z,16.20
2018-09-27T12:55:26.264Z,15.57
2018-09-27T12:58:30.548Z,17.77
2018-09-27T13:01:34.902Z,17.77
2018-09-27T13:04:39.152Z,17.93
2018-09-27T13:07:43.406Z,16.80
2018-09-27T13:10:47.684Z,17.53
2018-09-27T13:13:51.932Z,17.37
2018-09-27T13:16:56.206Z,18.60
2018-09-27T13:20:00.510Z,17.67
2018-09-27T13:23:04.777Z,19.03
2018-09-27T13:26:09.125Z,18.93
2018-09-27T13:29:13.373Z,17.80
2018-09-27T13:32:17.649Z,18.57
2018-09-27T13:35:21.896Z,20.07
2018-09-27T13:38:26.187Z,16.47
2018-09-27T13:41:30.428Z,17.57
2018-09-27T13:44:34.705Z,14.63
2018-09-27T13:47:38.987Z,14.53
2018-09-27T13:50:43.265Z,14.30
2018-09-27T13:53:47.575Z,17.60
2018-09-27T13:56:51.893Z,19.73
2018-09-27T13:59:56.184Z,17.30
2018-09-27T14:03:00.475Z,17.07
2018-09-27T14:06:04.758Z,18.40
2018-09-27T14:09:09.721Z,17.47
2018-09-27T14:12:14.002Z,17.20
2018-09-27T14:15:18.268Z,16.60
2018-09-27T14:18:22.516Z,18.67
2018-09-27T14:21:26.775Z,16.17
2018-09-27T14:24:31.058Z,16.97
2018-09-27T14:27:35.304Z,24.03
2018-09-27T14:30:39.582Z,15.80
2018-09-27T14:33:43.878Z,17.50
2018-09-27T14:36:48.622Z,15.13
2018-09-27T14:39:53.864Z,14.17
2018-09-27T14:42:58.141Z,11.30
2018-09-27T14:46:02.371Z,11.13
2018-09-27T14:49:06.700Z,10.07
2018-09-27T14:52:10.960Z,12.67
2018-09-27T14:55:15.214Z,16.97
2018-09-27T14:58:19.463Z,12.70
2018-09-27T15:01:23.859Z,13.33
2018-09-27T15:04:28.107Z,12.57
2018-09-27T15:07:32.366Z,16.17
2018-09-27T15:10:36.623Z,15.10
2018-09-27T15:13:41.010Z,13.70
2018-09-27T15:16:45.279Z,12.43
2018-09-27T15:19:49.520Z,12.03
2018-09-27T15:22:54.125Z,12.43
2018-09-27T15:25:58.380Z,16.40
2018-09-27T15:29:02.650Z,11.73
2018-09-27T15:32:06.913Z,11.33
2018-09-27T15:35:11.216Z,14.00
2018-09-27T15:38:15.649Z,11.33
2018-09-27T15:41:19.971Z,12.77
2018-09-27T15:44:24.241Z,12.13
2018-09-27T15:47:29.872Z,12.40
2018-09-27T15:50:34.217Z,13.10
2018-09-27T15:53:38.479Z,10.70
2018-09-27T15:56:42.794Z,11.47
2018-09-27T15:59:47.082Z,9.70
2018-09-27T16:02:51.402Z,10.30
2018-09-27T16:05:55.701Z,7.67
2018-09-27T16:09:00.139Z,8.37
2018-09-27T16:12:04.352Z,7.90
2018-09-27T16:15:08.654Z,9.67
2018-09-27T16:18:12.964Z,7.80
2018-09-27T16:21:17.208Z,7.77
2018-09-27T16:24:21.519Z,7.83
2018-09-27T16:27:25.831Z,7.60
2018-09-27T16:30:30.109Z,8.27
2018-09-27T16:33:34.514Z,8.47
2018-09-27T16:36:38.885Z,24.30
2018-09-27T16:39:43.165Z,12.33
2018-09-27T16:42:47.459Z,8.37
2018-09-27T16:45:51.747Z,8.87
2018-09-27T16:48:56.060Z,8.57
2018-09-27T16:52:00.330Z,11.20
2018-09-27T16:55:05.153Z,15.60
2018-09-27T16:58:09.461Z,11.57
2018-09-27T17:01:13.800Z,10.47
2018-09-27T17:04:18.119Z,9.67
2018-09-27T17:07:22.349Z,10.17
2018-09-27T17:10:26.576Z,8.73
2018-09-27T17:13:30.859Z,9.30
2018-09-27T17:16:35.183Z,10.43
2018-09-27T17:19:39.428Z,9.70
2018-09-27T17:22:43.940Z,9.53
2018-09-27T17:25:48.184Z,10.73
2018-09-27T17:28:52.429Z,9.90
2018-09-27T17:31:56.678Z,8.50
2018-09-27T17:35:00.961Z,9.07
2018-09-27T17:38:05.224Z,8.37
2018-09-27T17:41:09.697Z,9.43
2018-09-27T17:44:13.973Z,10.53
2018-09-27T17:47:18.277Z,11.07
2018-09-27T17:50:22.562Z,10.83
2018-09-27T17:53:26.996Z,10.83
2018-09-27T17:56:31.213Z,11.50
2018-09-27T17:59:35.534Z,11.83
2018-09-27T18:02:39.856Z,11.10
2018-09-27T18:05:44.272Z,12.43
2018-09-27T18:08:48.512Z,11.20
2018-09-27T18:11:52.799Z,11.43
2018-09-27T18:14:57.146Z,13.30
2018-09-27T18:18:01.444Z,12.33
2018-09-27T18:21:05.706Z,12.03
2018-09-27T18:24:10.053Z,12.47
2018-09-27T18:27:14.391Z,12.97
2018-09-27T18:30:19.837Z,13.90
2018-09-27T18:33:24.425Z,13.73
2018-09-27T18:36:29.867Z,13.77
2018-09-27T18:39:34.392Z,18.07
2018-09-27T18:42:38.794Z,17.73
2018-09-27T18:45:43.263Z,14.77
2018-09-27T18:48:47.581Z,13.20
2018-09-27T18:51:51.873Z,10.70
2018-09-27T18:54:56.276Z,7.63
2018-09-27T18:58:00.805Z,9.37
2018-09-27T19:01:05.223Z,10.07
2018-09-27T19:04:09.786Z,12.37
2018-09-27T19:07:14.284Z,13.20
2018-09-27T19:10:18.575Z,16.07
2018-09-27T19:13:22.950Z,16.97
2018-09-27T19:16:27.191Z,17.83
2018-09-27T19:19:31.886Z,19.67
2018-09-27T19:22:36.420Z,19.13
2018-09-27T19:25:40.967Z,18.33
2018-09-27T19:28:45.455Z,16.53
2018-09-27T19:31:49.970Z,17.53
2018-09-27T19:34:54.348Z,15.27
2018-09-27T19:37:58.816Z,11.90
2018-09-27T19:41:03.113Z,12.47
2018-09-27T19:44:07.592Z,13.07
2018-09-27T19:47:12.123Z,12.93
2018-09-27T19:50:16.398Z,10.43
2018-09-27T19:53:20.723Z,7.63
2018-09-27T19:56:25.111Z,8.47
2018-09-27T19:59:29.610Z,5.70
2018-09-27T20:02:33.986Z,6.67
2018-09-27T20:05:38.480Z,6.10
2018-09-27T20:08:43.018Z,6.70
2018-09-27T20:11:47.536Z,9.27
2018-09-27T20:14:51.967Z,7.03
2018-09-27T20:17:57.301Z,5.37
2018-09-27T20:21:02.454Z,6.10
2018-09-27T20:24:06.765Z,9.40
2018-09-27T20:27:11.565Z,8.37
2018-09-27T20:30:15.836Z,8.03
2018-09-27T20:33:20.511Z,7.73
2018-09-27T20:36:25.312Z,6.23
2018-09-27T20:39:29.686Z,7.30
2018-09-27T20:42:33.933Z,5.10
2018-09-27T20:45:38.343Z,4.97
2018-09-27T20:48:42.592Z,4.67
2018-09-27T20:51:47.008Z,4.67
2018-09-27T20:54:51.281Z,5.57
2018-09-27T20:57:56.431Z,4.87
2018-09-27T21:01:00.737Z,3.90
2018-09-27T21:04:05.167Z,4.17
2018-09-27T21:07:09.408Z,3.70
2018-09-27T21:10:14.814Z,3.80
2018-09-27T21:13:20.177Z,4.10
2018-09-27T21:16:24.505Z,4.30
2018-09-27T21:19:30.068Z,4.53
2018-09-27T21:22:34.334Z,3.60
2018-09-27T21:25:38.692Z,4.33
2018-09-27T21:28:42.942Z,3.83
2018-09-27T21:31:47.248Z,3.57
2018-09-27T21:34:52.310Z,3.40
2018-09-27T21:37:56.833Z,3.80
2018-09-27T21:41:01.566Z,3.47
2018-09-27T21:44:09.700Z,3.17
2018-09-27T21:47:15.689Z,2.20
2018-09-27T21:50:20.648Z,1.97
2018-09-27T21:53:25.224Z,1.67
2018-09-27T21:56:29.485Z,1.53
2018-09-27T21:59:33.921Z,2.00
2018-09-27T22:02:38.169Z,1.60
2018-09-27T22:05:42.421Z,1.53
2018-09-27T22:08:46.683Z,1.63
2018-09-27T22:11:51.016Z,1.60
2018-09-27T22:14:55.563Z,1.73
2018-09-27T22:17:59.864Z,1.60
2018-09-27T22:21:04.099Z,1.47
2018-09-27T22:24:08.474Z,1.80
2018-09-27T22:27:12.830Z,1.43
2018-09-27T22:30:17.116Z,1.70
2018-09-27T22:33:21.389Z,1.93
2018-09-27T22:36:25.792Z,1.80
2018-09-27T22:39:30.080Z,1.87
2018-09-27T22:42:34.354Z,1.90
2018-09-27T22:45:38.669Z,1.97
2018-09-27T22:48:42.925Z,2.17
2018-09-27T22:51:47.251Z,1.80
2018-09-27T22:54:51.529Z,1.80
2018-09-27T22:57:55.885Z,1.90
2018-09-27T23:01:00.133Z,2.53
2018-09-27T23:04:04.404Z,2.13
2018-09-27T23:07:08.708Z,2.17
2018-09-27T23:10:12.975Z,2.63
2018-09-27T23:13:17.752Z,1.77
2018-09-27T23:16:22.010Z,2.20
2018-09-27T23:19:27.391Z,1.70
2018-09-27T23:22:31.665Z,2.07
2018-09-27T23:25:35.955Z,2.07
2018-09-27T23:28:40.211Z,2.03
2018-09-27T23:31:44.493Z,1.33
2018-09-27T23:34:48.763Z,1.70
2018-09-27T23:37:53.031Z,1.70
2018-09-27T23:40:57.276Z,2.20
2018-09-27T23:44:01.531Z,2.13
2018-09-27T23:47:05.821Z,2.10
2018-09-27T23:50:10.096Z,1.87
2018-09-27T23:53:14.348Z,2.33
2018-09-27T23:56:18.645Z,2.13
2018-09-27T23:59:22.913Z,2.47
